createdAt,value
2019-06-01T00:00:25.468Z,19.9
2019-06-01T00:01:27.615Z,20.2
2019-06-01T00:02:29.800Z,20.1
2019-06-01T00:03:31.940Z,19.9
2019-06-01T00:04:34.110Z,20.1
2019-06-01T00:05:36.595Z,19.9
2019-06-01T00:06:41.244Z,20.1
2019-06-01T00:07:46.972Z,20
2019-06-01T00:08:49.891Z,20.3
2019-06-01T00:09:52.509Z,20
2019-06-01T00:10:54.668Z,20
2019-06-01T00:11:56.544Z,20.1
2019-06-01T00:12:58.974Z,20.2
2019-06-01T00:14:01.406Z,20
2019-06-01T00:15:03.840Z,20.2
2019-06-01T00:16:05.997Z,20
2019-06-01T00:17:08.169Z,20.3
2019-06-01T00:18:10.354Z,20.3
2019-06-01T00:19:12.524Z,20.1
2019-06-01T00:20:14.659Z,20
2019-06-01T00:21:17.636Z,20.2
2019-06-01T00:22:19.793Z,20
2019-06-01T00:23:22.221Z,20.3
2019-06-01T00:24:24.662Z,20.3
2019-06-01T00:25:27.083Z,20.1
2019-06-01T00:26:29.519Z,19.9
2019-06-01T00:27:31.671Z,20.1
2019-06-01T00:28:33.828Z,19.8
2019-06-01T00:29:35.985Z,20.1
2019-06-01T00:30:38.416Z,20.1
2019-06-01T00:31:42.951Z,20.3
2019-06-01T00:32:47.831Z,20
2019-06-01T00:33:52.397Z,20.3
2019-06-01T00:34:54.237Z,20
2019-06-01T00:35:56.667Z,20.3
2019-06-01T00:36:59.098Z,20.1
2019-06-01T00:38:01.521Z,20.3
2019-06-01T00:39:03.996Z,20.1
2019-06-01T00:40:06.466Z,19.9
2019-06-01T00:41:08.942Z,20.3
2019-06-01T00:42:11.362Z,20.2
2019-06-01T00:43:13.916Z,20.2
2019-06-01T00:44:16.078Z,20.2
2019-06-01T00:45:18.508Z,20
2019-06-01T00:46:20.927Z,20.4
2019-06-01T00:47:22.550Z,20.2
2019-06-01T00:48:24.977Z,20.3
2019-06-01T00:49:26.832Z,20.1
2019-06-01T00:50:29.273Z,20.2
2019-06-01T00:51:31.822Z,20.1
2019-06-01T00:52:34.256Z,20.4
2019-06-01T00:53:36.415Z,20.2
2019-06-01T00:54:38.844Z,20.4
2019-06-01T00:55:41.274Z,20.3
2019-06-01T00:56:45.551Z,20.4
2019-06-01T00:57:51.809Z,20.3
2019-06-01T00:58:55.220Z,19.9
2019-06-01T00:59:57.384Z,20.2
2019-06-01T01:00:59.801Z,20.2
2019-06-01T01:02:02.227Z,20.4
2019-06-01T01:03:04.662Z,20.4
2019-06-01T01:04:06.814Z,20.2
2019-06-01T01:05:09.232Z,20.3
2019-06-01T01:06:11.660Z,20
2019-06-01T01:07:14.085Z,20.3
2019-06-01T01:08:16.512Z,20.2
2019-06-01T01:09:18.934Z,20.3
2019-06-01T01:10:21.090Z,20.3
2019-06-01T01:11:23.234Z,20.2
2019-06-01T01:12:25.671Z,20.3
2019-06-01T01:13:28.098Z,20.3
2019-06-01T01:14:30.024Z,20.2
2019-06-01T01:15:32.456Z,20.3
2019-06-01T01:16:34.604Z,20.3
2019-06-01T01:17:37.666Z,20.4
2019-06-01T01:18:40.086Z,20.3
2019-06-01T01:19:42.520Z,20.3
2019-06-01T01:20:46.366Z,20.2
2019-06-01T01:21:50.408Z,20.2
2019-06-01T01:22:56.389Z,20.2
2019-06-01T01:23:58.863Z,20.4
2019-06-01T01:25:01.041Z,20.4
2019-06-01T01:26:03.530Z,20.4
2019-06-01T01:27:06.024Z,20
2019-06-01T01:28:08.446Z,20.2
2019-06-01T01:29:10.572Z,20.2
2019-06-01T01:30:12.734Z,20.3
2019-06-01T01:31:15.165Z,20.1
2019-06-01T01:32:17.324Z,20.2
2019-06-01T01:33:19.755Z,20.3
2019-06-01T01:34:22.211Z,20.3
2019-06-01T01:35:24.374Z,20.2
2019-06-01T01:36:26.800Z,20.1
2019-06-01T01:37:29.224Z,20.1
2019-06-01T01:38:31.649Z,20.3
2019-06-01T01:39:33.810Z,20.1
2019-06-01T01:40:35.712Z,20.3
2019-06-01T01:41:38.134Z,20.3
2019-06-01T01:42:40.571Z,20.4
2019-06-01T01:43:42.986Z,20.4
2019-06-01T01:44:45.151Z,20.2
2019-06-01T01:45:48.536Z,20.2
2019-06-01T01:46:53.268Z,20.3
2019-06-01T01:47:59.125Z,20.3
2019-06-01T01:49:03.163Z,20.4
2019-06-01T01:50:05.592Z,20.3
2019-06-01T01:51:07.752Z,20.5
2019-06-01T01:52:10.176Z,20.3
2019-06-01T01:53:12.606Z,20.2
2019-06-01T01:54:15.032Z,20.4
2019-06-01T01:55:17.475Z,20.2
2019-06-01T01:56:19.626Z,20.3
2019-06-01T01:57:22.057Z,20.4
2019-06-01T01:58:24.215Z,20.3
2019-06-01T01:59:26.643Z,20.1
2019-06-01T02:00:28.533Z,20.4
2019-06-01T02:01:30.964Z,20.5
2019-06-01T02:02:33.107Z,20.4
2019-06-01T02:03:34.966Z,20.2
2019-06-01T02:04:37.382Z,20.3
2019-06-01T02:05:39.807Z,20.2
2019-06-01T02:06:41.694Z,20.3
2019-06-01T02:07:44.134Z,20.4
2019-06-01T02:08:46.846Z,20.3
2019-06-01T02:09:49.284Z,20.2
2019-06-01T02:10:55.380Z,20.3
2019-06-01T02:12:00.092Z,20.4
2019-06-01T02:13:03.641Z,20.5
2019-06-01T02:14:06.068Z,20.3
2019-06-01T02:15:08.496Z,20.3
2019-06-01T02:16:10.648Z,20.3
2019-06-01T02:17:13.076Z,20.5
2019-06-01T02:18:15.504Z,20.1
2019-06-01T02:19:17.934Z,20.4
2019-06-01T02:20:20.078Z,20.1
2019-06-01T02:21:22.506Z,20.2
2019-06-01T02:22:24.360Z,20.4
2019-06-01T02:23:26.818Z,20.2
2019-06-01T02:24:29.020Z,20.3
2019-06-01T02:25:31.154Z,20.3
2019-06-01T02:26:33.303Z,20.3
2019-06-01T02:27:35.182Z,20.3
2019-06-01T02:28:37.627Z,20.3
2019-06-01T02:29:39.785Z,20.3
2019-06-01T02:30:42.226Z,20.5
2019-06-01T02:31:44.375Z,20.6
2019-06-01T02:32:46.252Z,20.4
2019-06-01T02:33:48.688Z,20
2019-06-01T02:34:51.106Z,20.2
2019-06-01T02:35:58.011Z,20.3
2019-06-01T02:37:06.472Z,20.2
2019-06-01T02:38:08.922Z,20.4
2019-06-01T02:39:10.994Z,20.4
2019-06-01T02:40:13.305Z,20.2
2019-06-01T02:41:15.824Z,20.1
2019-06-01T02:42:17.987Z,20.2
2019-06-01T02:43:20.146Z,20.2
2019-06-01T02:44:22.297Z,20.2
2019-06-01T02:45:24.717Z,20.3
2019-06-01T02:46:27.140Z,20.4
2019-06-01T02:47:29.293Z,20.3
2019-06-01T02:48:31.761Z,20.4
2019-06-01T02:49:34.288Z,20.3
2019-06-01T02:50:36.806Z,20.1
2019-06-01T02:51:39.241Z,20.3
2019-06-01T02:52:41.673Z,20.3
2019-06-01T02:53:44.102Z,20.2
2019-06-01T02:54:46.254Z,20.2
2019-06-01T02:55:48.415Z,20.4
2019-06-01T02:56:50.606Z,20.4
2019-06-01T02:57:53.044Z,20.3
2019-06-01T02:58:56.021Z,20.3
2019-06-01T02:59:58.990Z,20.3
2019-06-01T03:01:05.157Z,20.3
2019-06-01T03:03:13.961Z,20.1
2019-06-01T03:04:16.402Z,20.4
2019-06-01T03:05:18.544Z,20.2
2019-06-01T03:06:20.696Z,20.2
2019-06-01T03:07:22.843Z,20.2
2019-06-01T03:08:25.286Z,20.2
2019-06-01T03:09:27.155Z,20
2019-06-01T03:10:29.911Z,20.1
2019-06-01T03:11:32.067Z,20.2
2019-06-01T03:12:34.500Z,20.3
2019-06-01T03:13:36.646Z,20.2
2019-06-01T03:14:38.804Z,20.3
2019-06-01T03:15:40.958Z,20
2019-06-01T03:16:42.839Z,20.1
2019-06-01T03:17:45.288Z,20.3
2019-06-01T03:18:47.473Z,20.3
2019-06-01T03:19:49.094Z,20.2
2019-06-01T03:20:51.557Z,20
2019-06-01T03:21:53.976Z,20.1
2019-06-01T03:22:56.402Z,20.2
2019-06-01T03:24:00.208Z,20.1
2019-06-01T03:25:05.719Z,20.1
2019-06-01T03:26:09.508Z,20
2019-06-01T03:27:13.141Z,20.1
2019-06-01T03:28:15.306Z,19.8
2019-06-01T03:29:17.730Z,19.8
2019-06-01T03:30:20.040Z,20.2
2019-06-01T03:31:21.937Z,19.7
2019-06-01T03:33:29.345Z,20
2019-06-01T03:34:31.774Z,19.9
2019-06-01T03:35:34.196Z,19.8
2019-06-01T03:36:36.619Z,19.8
2019-06-01T03:37:38.774Z,19.9
2019-06-01T03:38:40.898Z,20
2019-06-01T03:39:42.772Z,19.9
2019-06-01T03:40:45.184Z,20.1
2019-06-01T03:41:47.613Z,20.1
2019-06-01T03:42:49.772Z,19.8
2019-06-01T03:43:51.909Z,20.2
2019-06-01T03:44:54.096Z,19.8
2019-06-01T03:45:56.221Z,19.9
2019-06-01T03:46:58.202Z,19.9
2019-06-01T03:48:01.033Z,19.8
2019-06-01T03:49:06.262Z,20.1
2019-06-01T03:50:10.829Z,19.8
2019-06-01T03:51:14.265Z,20
2019-06-01T03:52:16.696Z,20
2019-06-01T03:53:19.116Z,19.8
2019-06-01T03:54:21.540Z,19.7
2019-06-01T03:55:23.964Z,19.9
2019-06-01T03:56:26.116Z,19.7
2019-06-01T03:57:28.275Z,20
2019-06-01T03:58:30.703Z,19.9
2019-06-01T03:59:32.309Z,20
2019-06-01T04:00:34.439Z,19.9
2019-06-01T04:01:36.860Z,19.7
2019-06-01T04:02:39.003Z,19.9
2019-06-01T04:03:41.445Z,20.1
2019-06-01T04:04:43.884Z,20
2019-06-01T04:05:46.034Z,19.9
2019-06-01T04:06:48.458Z,19.7
2019-06-01T04:07:50.651Z,20
2019-06-01T04:08:52.807Z,19.9
2019-06-01T04:09:54.995Z,19.9
2019-06-01T04:10:57.416Z,19.8
2019-06-01T04:11:59.844Z,20.1
2019-06-01T04:13:05.502Z,19.9
2019-06-01T04:14:10.062Z,19.9
2019-06-01T04:16:18.729Z,19.8
2019-06-01T04:17:20.901Z,19.9
2019-06-01T04:18:23.334Z,20
2019-06-01T04:19:25.760Z,20
2019-06-01T04:20:28.204Z,19.8
2019-06-01T04:21:30.633Z,20
2019-06-01T04:22:32.525Z,19.8
2019-06-01T04:23:36.745Z,19.8
2019-06-01T04:24:39.166Z,19.9
2019-06-01T04:25:41.592Z,19.9
2019-06-01T04:26:44.024Z,19.9
2019-06-01T04:27:45.918Z,20
2019-06-01T04:28:48.410Z,20
2019-06-01T04:29:50.868Z,19.9
2019-06-01T04:30:53.316Z,19.9
2019-06-01T04:31:55.487Z,19.7
2019-06-01T04:32:57.927Z,19.9
2019-06-01T04:34:00.097Z,19.7
2019-06-01T04:35:04.950Z,19.9
2019-06-01T04:36:11.439Z,19.7
2019-06-01T04:37:15.020Z,19.8
2019-06-01T04:38:17.442Z,20
2019-06-01T04:39:19.324Z,19.8
2019-06-01T04:40:21.750Z,19.6
2019-06-01T04:41:24.178Z,19.9
2019-06-01T04:42:26.328Z,19.7
2019-06-01T04:43:28.487Z,19.8
2019-06-01T04:44:30.647Z,19.9
2019-06-01T04:45:33.085Z,19.7
2019-06-01T04:46:35.242Z,19.6
2019-06-01T04:47:37.684Z,19.8
2019-06-01T04:48:40.125Z,19.9
2019-06-01T04:49:42.294Z,19.6
2019-06-01T04:50:44.709Z,19.9
2019-06-01T04:51:46.875Z,19.8
2019-06-01T04:52:49.295Z,19.8
2019-06-01T04:53:51.486Z,19.8
2019-06-01T04:54:53.638Z,19.7
2019-06-01T04:55:55.805Z,19.6
2019-06-01T04:56:58.249Z,19.8
2019-06-01T04:58:00.416Z,19.6
2019-06-01T04:59:02.892Z,19.6
2019-06-01T05:01:13.535Z,19.7
2019-06-01T05:02:16.614Z,19.7
2019-06-01T05:03:19.055Z,19.9
2019-06-01T05:04:21.206Z,19.6
2019-06-01T05:05:23.638Z,19.6
2019-06-01T05:06:26.064Z,19.7
2019-06-01T05:07:28.235Z,19.6
2019-06-01T05:08:30.419Z,19.9
2019-06-01T05:09:32.564Z,19.7
2019-06-01T05:10:34.734Z,19.7
2019-06-01T05:11:36.894Z,19.6
2019-06-01T05:12:39.361Z,19.8
2019-06-01T05:13:41.805Z,19.7
2019-06-01T05:14:44.247Z,19.7
2019-06-01T05:15:46.678Z,19.6
2019-06-01T05:16:48.893Z,19.9
2019-06-01T05:17:51.330Z,19.8
2019-06-01T05:18:53.235Z,19.7
2019-06-01T05:19:55.663Z,19.8
2019-06-01T05:20:58.121Z,19.8
2019-06-01T05:22:00.274Z,19.6
2019-06-01T05:23:02.725Z,19.6
2019-06-01T05:24:04.903Z,19.7
2019-06-01T05:25:11.846Z,19.8
2019-06-01T05:26:15.641Z,19.7
2019-06-01T05:27:19.132Z,19.5
2019-06-01T05:28:21.561Z,19.7
2019-06-01T05:29:23.997Z,19.8
2019-06-01T05:30:26.428Z,19.7
2019-06-01T05:31:28.867Z,19.7
2019-06-01T05:32:31.309Z,19.8
2019-06-01T05:34:38.712Z,19.6
2019-06-01T05:35:40.881Z,19.7
2019-06-01T05:36:43.314Z,19.6
2019-06-01T05:37:45.745Z,19.8
2019-06-01T05:38:47.873Z,20
2019-06-01T05:39:50.203Z,19.5
2019-06-01T05:40:52.659Z,19.9
2019-06-01T05:41:55.095Z,19.9
2019-06-01T05:42:57.231Z,19.4
2019-06-01T05:43:59.654Z,19.5
2019-06-01T05:45:02.108Z,19.6
2019-06-01T05:46:04.279Z,19.8
2019-06-01T05:47:06.695Z,19.7
2019-06-01T05:48:11.988Z,19.6
2019-06-01T05:49:16.222Z,19.8
2019-06-01T05:50:19.785Z,19.8
2019-06-01T05:51:23.561Z,19.6
2019-06-01T05:52:25.173Z,19.5
2019-06-01T05:53:27.317Z,19.6
2019-06-01T05:54:29.474Z,19.7
2019-06-01T05:55:31.946Z,19.6
2019-06-01T05:56:34.086Z,19.9
2019-06-01T05:57:36.505Z,19.6
2019-06-01T05:58:38.939Z,19.9
2019-06-01T05:59:41.390Z,19.8
2019-06-01T06:00:43.604Z,19.8
2019-06-01T06:01:46.083Z,19.5
2019-06-01T06:02:48.254Z,19.8
2019-06-01T06:03:50.685Z,19.8
2019-06-01T06:04:54.725Z,20
2019-06-01T06:05:57.156Z,19.8
2019-06-01T06:06:59.580Z,19.7
2019-06-01T06:08:01.737Z,19.5
2019-06-01T06:09:04.162Z,19.6
2019-06-01T06:10:06.573Z,19.7
2019-06-01T06:11:08.995Z,19.8
2019-06-01T06:12:15.278Z,19.7
2019-06-01T06:13:21.613Z,19.6
2019-06-01T06:14:24.095Z,19.8
2019-06-01T06:15:26.533Z,19.5
2019-06-01T06:16:28.952Z,19.8
2019-06-01T06:17:31.383Z,19.7
2019-06-01T06:18:33.803Z,19.6
2019-06-01T06:19:36.241Z,19.7
2019-06-01T06:20:38.413Z,19.7
2019-06-01T06:21:40.844Z,19.5
2019-06-01T06:22:43.329Z,19.8
2019-06-01T06:23:45.808Z,19.8
2019-06-01T06:24:48.238Z,19.8
2019-06-01T06:25:50.394Z,19.6
2019-06-01T06:26:52.822Z,19.6
2019-06-01T06:27:55.252Z,19.6
2019-06-01T06:28:57.523Z,19.9
2019-06-01T06:30:00.067Z,19.7
2019-06-01T06:31:02.512Z,19.6
2019-06-01T06:32:04.959Z,19.5
2019-06-01T06:33:11.369Z,19.7
2019-06-01T06:34:17.328Z,19.8
2019-06-01T06:35:23.623Z,19.9
2019-06-01T06:36:25.599Z,19.6
2019-06-01T06:37:28.021Z,19.6
2019-06-01T06:38:30.453Z,19.8
2019-06-01T06:39:32.599Z,19.6
2019-06-01T06:40:34.488Z,19.5
2019-06-01T06:41:36.934Z,19.9
2019-06-01T06:42:39.085Z,19.5
2019-06-01T06:43:40.991Z,19.7
2019-06-01T06:44:43.409Z,19.7
2019-06-01T06:45:46.467Z,19.7
2019-06-01T06:46:48.904Z,19.7
2019-06-01T06:47:51.051Z,19.5
2019-06-01T06:48:53.207Z,19.8
2019-06-01T06:49:55.347Z,19.9
2019-06-01T06:50:57.499Z,19.6
2019-06-01T06:51:59.915Z,19.8
2019-06-01T06:53:02.368Z,19.8
2019-06-01T06:54:04.515Z,19.7
2019-06-01T06:55:06.980Z,19.7
2019-06-01T06:56:08.843Z,19.8
2019-06-01T06:57:11.263Z,19.4
2019-06-01T06:58:13.391Z,19.9
2019-06-01T06:59:16.151Z,19.9
2019-06-01T07:00:20.560Z,19.8
2019-06-01T07:01:25.304Z,19.6
2019-06-01T07:02:28.984Z,19.6
2019-06-01T07:03:31.425Z,19.5
2019-06-01T07:04:33.599Z,19.6
2019-06-01T07:05:36.015Z,19.6
2019-06-01T07:06:38.454Z,19.6
2019-06-01T07:07:40.943Z,19.6
2019-06-01T07:08:42.830Z,19.6
2019-06-01T07:09:45.263Z,19.7
2019-06-01T07:10:47.157Z,19.7
2019-06-01T07:11:49.594Z,19.5
2019-06-01T07:12:52.038Z,19.6
2019-06-01T07:13:54.196Z,19.6
2019-06-01T07:14:56.618Z,19.6
2019-06-01T07:15:59.269Z,19.8
2019-06-01T07:17:05.706Z,19.8
2019-06-01T07:18:08.248Z,19.7
2019-06-01T07:19:10.385Z,19.8
2019-06-01T07:20:12.837Z,19.6
2019-06-01T07:21:15.278Z,19.7
2019-06-01T07:22:17.889Z,19.8
2019-06-01T07:23:23.714Z,19.7
2019-06-01T07:24:28.674Z,19.7
2019-06-01T07:25:30.879Z,19.7
2019-06-01T07:26:34.501Z,19.8
2019-06-01T07:27:36.957Z,19.6
2019-06-01T07:28:39.088Z,19.7
2019-06-01T07:29:41.557Z,19.8
2019-06-01T07:31:48.684Z,19.7
2019-06-01T07:32:50.838Z,19.8
2019-06-01T07:33:53.306Z,19.9
2019-06-01T07:34:55.729Z,19.8
2019-06-01T07:36:02.152Z,19.6
2019-06-01T07:37:04.594Z,19.6
2019-06-01T07:38:07.025Z,19.8
2019-06-01T07:39:09.468Z,19.9
2019-06-01T07:41:16.905Z,19.7
2019-06-01T07:42:18.778Z,19.8
2019-06-01T07:43:25.248Z,19.8
2019-06-01T07:44:30.005Z,19.6
2019-06-01T07:46:37.422Z,19.8
2019-06-01T07:47:39.842Z,19.8
2019-06-01T07:48:41.390Z,19.6
2019-06-01T07:49:43.246Z,19.9
2019-06-01T07:50:45.669Z,19.6
2019-06-01T07:51:47.853Z,19.9
2019-06-01T07:52:50.149Z,19.7
2019-06-01T07:53:52.673Z,19.6
2019-06-01T07:54:55.115Z,19.6
2019-06-01T07:55:57.538Z,19.7
2019-06-01T07:56:59.427Z,19.6
2019-06-01T07:58:01.601Z,19.9
2019-06-01T07:59:04.026Z,19.8
2019-06-01T08:00:06.454Z,19.6
2019-06-01T08:01:08.967Z,19.8
2019-06-01T08:02:11.221Z,19.7
2019-06-01T08:03:13.681Z,19.9
2019-06-01T08:04:15.885Z,19.8
2019-06-01T08:05:18.306Z,19.7
2019-06-01T08:06:23.778Z,19.8
2019-06-01T08:07:32.519Z,19.8
2019-06-01T08:08:34.697Z,19.8
2019-06-01T08:09:36.869Z,19.7
2019-06-01T08:10:39.022Z,19.7
2019-06-01T08:11:41.454Z,19.5
2019-06-01T08:12:43.891Z,19.6
2019-06-01T08:13:46.336Z,19.6
2019-06-01T08:14:48.838Z,19.6
2019-06-01T08:15:50.973Z,19.9
2019-06-01T08:16:53.154Z,19.8
2019-06-01T08:17:55.715Z,19.8
2019-06-01T08:18:57.994Z,19.6
2019-06-01T08:20:00.396Z,19.6
2019-06-01T08:21:02.592Z,19.8
2019-06-01T08:22:05.068Z,19.9
2019-06-01T08:23:07.691Z,19.8
2019-06-01T08:24:09.875Z,19.6
2019-06-01T08:25:12.557Z,19.7
2019-06-01T08:26:14.765Z,19.5
2019-06-01T08:27:18.864Z,19.7
2019-06-01T08:28:22.296Z,19.7
2019-06-01T08:29:27.147Z,19.9
2019-06-01T08:30:33.203Z,19.6
2019-06-01T08:31:35.627Z,19.6
2019-06-01T08:32:37.524Z,19.7
2019-06-01T08:33:39.971Z,19.8
2019-06-01T08:34:42.113Z,19.8
2019-06-01T08:35:44.541Z,19.7
2019-06-01T08:36:46.699Z,19.5
2019-06-01T08:37:49.154Z,19.8
2019-06-01T08:38:51.316Z,19.7
2019-06-01T08:39:53.473Z,19.6
2019-06-01T08:40:55.631Z,19.5
2019-06-01T08:41:57.769Z,19.7
2019-06-01T08:43:00.305Z,19.8
2019-06-01T08:44:02.890Z,19.6
2019-06-01T08:45:05.451Z,19.9
2019-06-01T08:46:07.953Z,19.7
2019-06-01T08:47:10.412Z,19.6
2019-06-01T08:48:12.618Z,19.7
2019-06-01T08:49:15.115Z,19.7
2019-06-01T08:50:17.647Z,19.8
2019-06-01T08:51:20.123Z,19.8
2019-06-01T08:52:22.297Z,20
2019-06-01T08:53:27.870Z,19.9
2019-06-01T08:54:32.741Z,19.8
2019-06-01T08:55:36.425Z,20.1
2019-06-01T08:56:38.312Z,19.9
2019-06-01T08:57:40.478Z,19.9
2019-06-01T08:58:42.633Z,19.7
2019-06-01T08:59:45.244Z,20.1
2019-06-01T09:00:47.785Z,19.8
2019-06-01T09:01:50.269Z,20.2
2019-06-01T09:02:52.736Z,20.1
2019-06-01T09:03:55.159Z,20
2019-06-01T09:04:57.599Z,20.2
2019-06-01T09:05:59.486Z,20.3
2019-06-01T09:07:01.926Z,20.2
2019-06-01T09:08:04.433Z,19.9
2019-06-01T09:09:06.874Z,20.1
2019-06-01T09:10:13.305Z,19.8
2019-06-01T09:11:15.727Z,20
2019-06-01T09:12:18.233Z,20
2019-06-01T09:13:20.646Z,20.1
2019-06-01T09:14:23.062Z,20
2019-06-01T09:15:29.579Z,20.3
2019-06-01T09:16:36.407Z,20.2
2019-06-01T09:17:38.884Z,20
2019-06-01T09:18:41.053Z,19.9
2019-06-01T09:19:43.480Z,19.8
2019-06-01T09:20:45.636Z,20.2
2019-06-01T09:21:48.064Z,20.3
2019-06-01T09:22:50.497Z,20.3
2019-06-01T09:23:52.653Z,20
2019-06-01T09:24:54.804Z,20.1
2019-06-01T09:25:57.324Z,20.3
2019-06-01T09:26:59.757Z,20.4
2019-06-01T09:28:02.183Z,20.1
2019-06-01T09:29:04.605Z,20.2
2019-06-01T09:30:06.775Z,20.2
2019-06-01T09:31:09.205Z,20.3
2019-06-01T09:32:12.072Z,20.2
2019-06-01T09:33:14.231Z,19.8
2019-06-01T09:34:16.383Z,20.3
2019-06-01T09:35:18.556Z,20.2
2019-06-01T09:36:20.974Z,20.2
2019-06-01T09:37:22.869Z,20.1
2019-06-01T09:38:24.721Z,20.3
2019-06-01T09:39:30.861Z,20.3
2019-06-01T09:40:37.164Z,20.2
2019-06-01T09:41:39.743Z,20.4
2019-06-01T09:42:41.889Z,20.4
2019-06-01T09:43:44.033Z,20.3
2019-06-01T09:44:46.186Z,20.3
2019-06-01T09:46:53.595Z,20.3
2019-06-01T09:47:55.519Z,20.4
2019-06-01T09:48:58.463Z,20.4
2019-06-01T09:50:00.905Z,20.4
2019-06-01T09:51:03.332Z,20.5
2019-06-01T09:52:05.774Z,20.4
2019-06-01T09:53:08.215Z,20.3
2019-06-01T09:54:10.639Z,20.5
2019-06-01T09:55:13.065Z,20.4
2019-06-01T09:56:14.928Z,20.2
2019-06-01T09:57:17.085Z,20.6
2019-06-01T09:58:19.552Z,20.6
2019-06-01T09:59:21.436Z,20.3
2019-06-01T10:00:23.593Z,20.5
2019-06-01T10:01:25.479Z,20.4
2019-06-01T10:02:30.392Z,20.4
2019-06-01T10:03:36.438Z,20.6
2019-06-01T10:04:40.191Z,20.3
2019-06-01T10:05:42.331Z,20.5
2019-06-01T10:06:48.951Z,20.4
2019-06-01T10:07:50.570Z,20.3
2019-06-01T10:08:53.005Z,20.5
2019-06-01T10:09:55.174Z,20.3
2019-06-01T10:10:57.051Z,20.6
2019-06-01T10:11:59.485Z,20.3
2019-06-01T10:13:01.633Z,20.4
2019-06-01T10:14:03.802Z,20.3
2019-06-01T10:15:06.026Z,20.4
2019-06-01T10:16:08.313Z,20.2
2019-06-01T10:17:10.736Z,20.3
2019-06-01T10:18:12.914Z,20.4
2019-06-01T10:19:15.084Z,20.5
2019-06-01T10:20:16.682Z,20.1
2019-06-01T10:21:18.834Z,20.4
2019-06-01T10:22:21.107Z,20.3
2019-06-01T10:23:23.754Z,20.4
2019-06-01T10:24:26.231Z,20.2
2019-06-01T10:25:30.222Z,20.2
2019-06-01T10:26:37.559Z,20.3
2019-06-01T10:27:43.443Z,20
2019-06-01T10:28:45.908Z,20.2
2019-06-01T10:29:47.807Z,20.1
2019-06-01T10:30:49.685Z,20.2
2019-06-01T10:31:51.549Z,19.9
2019-06-01T10:32:53.979Z,20.2
2019-06-01T10:33:56.397Z,20.2
2019-06-01T10:34:59.005Z,20.2
2019-06-01T10:37:06.411Z,20.2
2019-06-01T10:38:08.857Z,20.1
2019-06-01T10:39:11.013Z,20.2
2019-06-01T10:40:13.455Z,20.2
2019-06-01T10:41:15.903Z,20
2019-06-01T10:42:18.323Z,20
2019-06-01T10:43:20.490Z,20.3
2019-06-01T10:44:22.983Z,20.1
2019-06-01T10:45:25.431Z,19.9
2019-06-01T10:46:27.437Z,20.3
2019-06-01T10:47:29.871Z,20
2019-06-01T10:48:36.296Z,20.3
2019-06-01T10:49:42.087Z,20.4
2019-06-01T10:50:44.579Z,20.2
2019-06-01T10:51:46.736Z,20
2019-06-01T10:52:49.182Z,20.2
2019-06-01T10:53:51.619Z,20.2
2019-06-01T10:54:53.801Z,20.2
2019-06-01T10:55:56.234Z,20
2019-06-01T10:56:58.382Z,20.1
2019-06-01T10:58:00.559Z,20.1
2019-06-01T10:59:03.242Z,20.3
2019-06-01T11:00:05.889Z,20.1
2019-06-01T11:01:08.059Z,20.3
2019-06-01T11:02:10.220Z,20.3
2019-06-01T11:03:13.253Z,20
2019-06-01T11:04:15.693Z,20.2
2019-06-01T11:05:17.922Z,20.2
2019-06-01T11:07:25.328Z,19.9
2019-06-01T11:08:27.758Z,20
2019-06-01T11:09:29.626Z,20.2
2019-06-01T11:10:33.236Z,20.2
2019-06-01T11:11:39.047Z,20
2019-06-01T11:12:43.624Z,20.2
2019-06-01T11:13:46.071Z,20.4
2019-06-01T11:14:48.225Z,20.4
2019-06-01T11:15:50.400Z,19.9
2019-06-01T11:17:57.539Z,20
2019-06-01T11:18:59.971Z,20.1
2019-06-01T11:20:02.151Z,20.1
2019-06-01T11:21:04.027Z,20.2
2019-06-01T11:22:06.464Z,20.1
2019-06-01T11:23:08.639Z,20.2
2019-06-01T11:24:11.074Z,19.8
2019-06-01T11:25:13.804Z,20.2
2019-06-01T11:26:16.230Z,19.8
2019-06-01T11:27:18.118Z,19.9
2019-06-01T11:28:20.287Z,20
2019-06-01T11:29:22.510Z,19.9
2019-06-01T11:30:24.476Z,20.2
2019-06-01T11:31:26.923Z,20
2019-06-01T11:32:29.364Z,20
2019-06-01T11:33:31.815Z,20.1
2019-06-01T11:34:38.319Z,20
2019-06-01T11:35:45.723Z,20.2
2019-06-01T11:37:53.336Z,20.2
2019-06-01T11:38:55.496Z,20.3
2019-06-01T11:39:57.378Z,20.2
2019-06-01T11:40:59.255Z,20
2019-06-01T11:42:01.453Z,20.2
2019-06-01T11:43:04.146Z,19.9
2019-06-01T11:44:06.049Z,20.1
2019-06-01T11:45:08.211Z,20
2019-06-01T11:46:10.629Z,20
2019-06-01T11:47:12.766Z,20
2019-06-01T11:48:14.946Z,20
2019-06-01T11:50:22.372Z,20.2
2019-06-01T11:51:24.533Z,20.2
2019-06-01T11:52:26.964Z,20.2
2019-06-01T11:53:28.851Z,20.2
2019-06-01T11:54:31.023Z,20
2019-06-01T11:55:33.462Z,20.3
2019-06-01T11:56:39.165Z,19.8
2019-06-01T11:57:43.947Z,20.2
2019-06-01T11:58:47.829Z,19.9
2019-06-01T11:59:50.262Z,20.1
2019-06-01T12:00:52.710Z,19.9
2019-06-01T12:01:55.146Z,20
2019-06-01T12:02:57.324Z,19.9
2019-06-01T12:03:59.476Z,20
2019-06-01T12:05:01.631Z,20.2
2019-06-01T12:06:04.068Z,20
2019-06-01T12:08:11.495Z,19.9
2019-06-01T12:09:13.922Z,20.3
2019-06-01T12:10:16.354Z,20
2019-06-01T12:11:18.810Z,19.8
2019-06-01T12:12:21.240Z,20.1
2019-06-01T12:13:23.695Z,20.2
2019-06-01T12:14:25.846Z,19.9
2019-06-01T12:15:28.290Z,20.1
2019-06-01T12:16:30.733Z,20.1
2019-06-01T12:17:33.192Z,19.8
2019-06-01T12:18:36.921Z,20
2019-06-01T12:19:42.665Z,19.9
2019-06-01T12:20:47.308Z,20.1
2019-06-01T12:21:49.274Z,20
2019-06-01T12:22:51.712Z,20.2
2019-06-01T12:23:53.595Z,20.2
2019-06-01T12:24:55.726Z,20.1
2019-06-01T12:25:58.151Z,19.9
2019-06-01T12:27:00.326Z,20.2
2019-06-01T12:28:02.750Z,20.1
2019-06-01T12:29:05.172Z,20.1
2019-06-01T12:30:07.615Z,20.3
2019-06-01T12:31:10.035Z,19.9
2019-06-01T12:32:12.470Z,19.9
2019-06-01T12:33:14.891Z,20.1
2019-06-01T12:34:17.328Z,20
2019-06-01T12:35:19.788Z,19.8
2019-06-01T12:36:22.052Z,20.2
2019-06-01T12:38:29.444Z,20.3
2019-06-01T12:39:31.389Z,20.1
2019-06-01T12:40:33.543Z,20
2019-06-01T12:41:35.974Z,20
2019-06-01T12:42:39.686Z,20.2
2019-06-01T12:43:46.174Z,20.1
2019-06-01T12:44:49.775Z,20
2019-06-01T12:46:58.454Z,20.3
2019-06-01T12:48:00.890Z,20.3
2019-06-01T12:49:03.392Z,19.9
2019-06-01T12:50:05.873Z,20.1
2019-06-01T12:51:08.425Z,20.1
2019-06-01T12:52:10.925Z,19.9
2019-06-01T12:53:13.392Z,20.1
2019-06-01T12:54:15.798Z,20.2
2019-06-01T12:55:18.365Z,20.1
2019-06-01T12:56:20.831Z,19.9
2019-06-01T12:57:23.286Z,20
2019-06-01T12:58:25.460Z,19.9
2019-06-01T12:59:27.824Z,19.9
2019-06-01T13:00:29.699Z,20.1
2019-06-01T13:01:31.869Z,20.2
2019-06-01T13:02:34.292Z,19.9
2019-06-01T13:03:36.732Z,20.1
2019-06-01T13:04:40.528Z,20.3
2019-06-01T13:05:45.996Z,20.3
2019-06-01T13:09:00.892Z,20
2019-06-01T13:10:03.312Z,19.8
2019-06-01T13:11:05.750Z,20.2
2019-06-01T13:12:08.191Z,20
2019-06-01T13:13:10.346Z,20.2
2019-06-01T13:14:12.856Z,20.3
2019-06-01T13:15:15.290Z,19.9
2019-06-01T13:16:17.164Z,20.3
2019-06-01T13:17:19.596Z,20
2019-06-01T13:18:21.753Z,20.1
2019-06-01T13:19:23.372Z,20.1
2019-06-01T13:20:25.845Z,20.1
2019-06-01T13:21:28.357Z,20
2019-06-01T13:22:30.482Z,20.2
2019-06-01T13:23:32.913Z,20.2
2019-06-01T13:24:35.071Z,20.2
2019-06-01T13:25:37.495Z,20.2
2019-06-01T13:26:39.650Z,20.1
2019-06-01T13:27:48.673Z,20.3
2019-06-01T13:28:54.006Z,20.2
2019-06-01T13:29:56.428Z,20.2
2019-06-01T13:30:58.598Z,20.2
2019-06-01T13:32:00.789Z,20.2
2019-06-01T13:33:02.961Z,20.2
2019-06-01T13:34:05.120Z,20
2019-06-01T13:35:07.284Z,20.4
2019-06-01T13:36:09.720Z,19.9
2019-06-01T13:37:12.146Z,20
2019-06-01T13:38:14.578Z,20.1
2019-06-01T13:39:17.016Z,20.3
2019-06-01T13:40:19.468Z,20.3
2019-06-01T13:41:21.364Z,20.1
2019-06-01T13:42:23.789Z,20.2
2019-06-01T13:43:26.216Z,20
2019-06-01T13:44:28.359Z,20.1
2019-06-01T13:45:30.809Z,20.1
2019-06-01T13:46:33.042Z,20.1
2019-06-01T13:47:35.202Z,19.9
2019-06-01T13:48:37.649Z,20
2019-06-01T13:49:39.547Z,20.2
2019-06-01T13:50:41.980Z,20
2019-06-01T13:51:47.821Z,20.2
2019-06-01T13:52:52.693Z,20.1
2019-06-01T13:53:55.900Z,20.3
2019-06-01T13:54:57.790Z,20.3
2019-06-01T13:56:00.238Z,20.1
2019-06-01T13:57:02.673Z,20.1
2019-06-01T13:58:05.104Z,20.2
2019-06-01T13:59:07.554Z,20.1
2019-06-01T14:00:09.726Z,20
2019-06-01T14:01:16.149Z,20.2
2019-06-01T14:02:18.591Z,20.1
2019-06-01T14:03:20.925Z,20.3
2019-06-01T14:04:23.081Z,20.1
2019-06-01T14:05:25.568Z,20
2019-06-01T14:06:27.995Z,20
2019-06-01T14:07:30.174Z,20.2
2019-06-01T14:08:32.613Z,20.3
2019-06-01T14:09:34.476Z,20.3
2019-06-01T14:10:36.607Z,20.2
2019-06-01T14:11:39.051Z,20.3
2019-06-01T14:12:41.194Z,20.3
2019-06-01T14:13:43.354Z,20.3
2019-06-01T14:14:49.261Z,20.2
2019-06-01T14:15:54.105Z,20.3
2019-06-01T14:16:57.618Z,20.3
2019-06-01T14:18:00.055Z,20.4
2019-06-01T14:20:07.458Z,20.2
2019-06-01T14:21:09.892Z,20.3
2019-06-01T14:22:12.350Z,20.3